Terminal Aerodrome Forecast
Issued by NWS Charleston, SC

Home | Current Version | Previous Version | Text Only | Print | Product List | Glossary On
Versions: 1 2 3 4 5 6 7 8 9 10 11 12 13 14 15 16 17
000
FTUS42 KCHS 021135
TAFSAV
TAF
KSAV 021135Z 0212/0312 VRB03KT P6SM SCT035 BKN150
     FM021700 18007KT P6SM VCTS SCT030CB BKN060
      TEMPO 0218/0222 3SM TSRA BKN020CB
     FM030000 VRB03KT P6SM BKN040=

USA.gov is the U.S. government's official web portal to all federal, state and local government web resources and services.